sensor_id;sensor_type;location;lat;lon;timestamp;P1;durP1;ratioP1;P2;durP2;ratioP2
67108;SDS011;54027;50.786;7.058;2024-03-22T00:00:09;25.63;;;16.05;;
67108;SDS011;54027;50.786;7.058;2024-03-22T00:02:36;24.17;;;15.65;;
67108;SDS011;54027;50.786;7.058;2024-03-22T00:05:03;25.00;;;14.32;;
67108;SDS011;54027;50.786;7.058;2024-03-22T00:07:28;25.05;;;14.57;;
67108;SDS011;54027;50.786;7.058;2024-03-22T00:09:54;22.42;;;14.55;;
67108;SDS011;54027;50.786;7.058;2024-03-22T00:12:19;26.27;;;15.40;;
67108;SDS011;54027;50.786;7.058;2024-03-22T00:14:45;27.15;;;16.23;;
67108;SDS011;54027;50.786;7.058;2024-03-22T00:17:10;24.25;;;14.32;;
67108;SDS011;54027;50.786;7.058;2024-03-22T00:19:36;21.83;;;14.18;;
67108;SDS011;54027;50.786;7.058;2024-03-22T00:22:01;29.88;;;15.95;;
67108;SDS011;54027;50.786;7.058;2024-03-22T00:24:26;30.05;;;17.67;;
67108;SDS011;54027;50.786;7.058;2024-03-22T00:26:52;22.45;;;13.77;;
67108;SDS011;54027;50.786;7.058;2024-03-22T00:29:17;26.55;;;14.95;;
67108;SDS011;54027;50.786;7.058;2024-03-22T00:31:43;26.15;;;16.83;;
67108;SDS011;54027;50.786;7.058;2024-03-22T00:34:08;23.23;;;15.43;;
67108;SDS011;54027;50.786;7.058;2024-03-22T00:36:34;30.38;;;16.73;;
67108;SDS011;54027;50.786;7.058;2024-03-22T00:38:59;24.65;;;15.98;;
67108;SDS011;54027;50.786;7.058;2024-03-22T00:41:24;29.05;;;16.77;;
67108;SDS011;54027;50.786;7.058;2024-03-22T00:43:50;21.40;;;13.55;;
67108;SDS011;54027;50.786;7.058;2024-03-22T00:46:15;21.05;;;13.55;;
67108;SDS011;54027;50.786;7.058;2024-03-22T00:48:40;21.95;;;14.05;;
67108;SDS011;54027;50.786;7.058;2024-03-22T00:51:06;20.98;;;13.98;;
67108;SDS011;54027;50.786;7.058;2024-03-22T00:53:32;22.77;;;13.95;;
67108;SDS011;54027;50.786;7.058;2024-03-22T00:55:57;22.23;;;14.20;;
67108;SDS011;54027;50.786;7.058;2024-03-22T00:58:24;25.05;;;13.23;;
67108;SDS011;54027;50.786;7.058;2024-03-22T01:00:53;20.80;;;13.45;;
67108;SDS011;54027;50.786;7.058;2024-03-22T01:03:19;20.27;;;13.05;;
67108;SDS011;54027;50.786;7.058;2024-03-22T01:05:44;21.13;;;13.73;;
67108;SDS011;54027;50.786;7.058;2024-03-22T01:08:10;25.25;;;14.00;;
67108;SDS011;54027;50.786;7.058;2024-03-22T01:10:36;22.42;;;13.63;;
67108;SDS011;54027;50.786;7.058;2024-03-22T01:13:01;21.85;;;13.75;;
67108;SDS011;54027;50.786;7.058;2024-03-22T01:15:27;26.98;;;14.18;;
67108;SDS011;54027;50.786;7.058;2024-03-22T01:17:52;21.45;;;14.38;;
67108;SDS011;54027;50.786;7.058;2024-03-22T01:20:18;28.73;;;13.55;;
67108;SDS011;54027;50.786;7.058;2024-03-22T01:22:43;22.63;;;13.85;;
67108;SDS011;54027;50.786;7.058;2024-03-22T01:25:09;24.08;;;13.85;;
67108;SDS011;54027;50.786;7.058;2024-03-22T01:27:35;21.20;;;13.10;;
67108;SDS011;54027;50.786;7.058;2024-03-22T01:30:01;23.15;;;13.77;;
67108;SDS011;54027;50.786;7.058;2024-03-22T01:32:27;22.38;;;13.30;;
67108;SDS011;54027;50.786;7.058;2024-03-22T01:34:52;22.95;;;13.73;;
67108;SDS011;54027;50.786;7.058;2024-03-22T01:37:17;22.55;;;13.68;;
67108;SDS011;54027;50.786;7.058;2024-03-22T01:39:43;23.75;;;12.80;;
67108;SDS011;54027;50.786;7.058;2024-03-22T01:42:08;21.00;;;12.52;;
67108;SDS011;54027;50.786;7.058;2024-03-22T01:44:33;21.90;;;12.80;;
67108;SDS011;54027;50.786;7.058;2024-03-22T01:46:59;24.08;;;13.07;;
67108;SDS011;54027;50.786;7.058;2024-03-22T01:49:25;22.85;;;13.85;;
67108;SDS011;54027;50.786;7.058;2024-03-22T01:51:51;23.13;;;13.60;;
67108;SDS011;54027;50.786;7.058;2024-03-22T01:54:17;23.42;;;13.35;;
67108;SDS011;54027;50.786;7.058;2024-03-22T01:56:45;20.25;;;12.52;;
67108;SDS011;54027;50.786;7.058;2024-03-22T01:59:11;21.83;;;12.80;;
67108;SDS011;54027;50.786;7.058;2024-03-22T02:01:37;19.52;;;12.52;;
67108;SDS011;54027;50.786;7.058;2024-03-22T02:04:03;19.33;;;11.65;;
67108;SDS011;54027;50.786;7.058;2024-03-22T02:06:29;20.38;;;11.50;;
67108;SDS011;54027;50.786;7.058;2024-03-22T02:08:55;20.00;;;11.52;;
67108;SDS011;54027;50.786;7.058;2024-03-22T02:11:21;21.30;;;12.35;;
67108;SDS011;54027;50.786;7.058;2024-03-22T02:13:47;18.35;;;11.15;;
67108;SDS011;54027;50.786;7.058;2024-03-22T02:16:13;21.05;;;12.30;;
67108;SDS011;54027;50.786;7.058;2024-03-22T02:18:38;23.30;;;13.25;;
67108;SDS011;54027;50.786;7.058;2024-03-22T02:21:04;21.13;;;13.40;;
67108;SDS011;54027;50.786;7.058;2024-03-22T02:23:36;20.52;;;11.77;;
67108;SDS011;54027;50.786;7.058;2024-03-22T02:26:02;20.23;;;12.02;;
67108;SDS011;54027;50.786;7.058;2024-03-22T02:28:29;19.33;;;12.40;;
67108;SDS011;54027;50.786;7.058;2024-03-22T02:30:57;20.45;;;12.80;;
67108;SDS011;54027;50.786;7.058;2024-03-22T02:33:22;19.30;;;12.13;;
67108;SDS011;54027;50.786;7.058;2024-03-22T02:35:48;18.77;;;11.65;;
67108;SDS011;54027;50.786;7.058;2024-03-22T02:38:14;20.02;;;12.02;;
67108;SDS011;54027;50.786;7.058;2024-03-22T02:40:40;23.25;;;12.95;;
67108;SDS011;54027;50.786;7.058;2024-03-22T02:43:07;22.05;;;13.15;;
67108;SDS011;54027;50.786;7.058;2024-03-22T02:45:33;20.30;;;12.10;;
67108;SDS011;54027;50.786;7.058;2024-03-22T02:47:58;18.98;;;11.88;;
67108;SDS011;54027;50.786;7.058;2024-03-22T02:50:24;22.23;;;11.73;;
67108;SDS011;54027;50.786;7.058;2024-03-22T02:52:49;18.80;;;11.60;;
67108;SDS011;54027;50.786;7.058;2024-03-22T02:55:15;20.08;;;12.52;;
67108;SDS011;54027;50.786;7.058;2024-03-22T02:57:41;18.33;;;11.90;;
67108;SDS011;54027;50.786;7.058;2024-03-22T03:00:06;20.42;;;12.30;;
67108;SDS011;54027;50.786;7.058;2024-03-22T03:02:33;22.33;;;12.98;;
67108;SDS011;54027;50.786;7.058;2024-03-22T03:04:58;19.00;;;11.80;;
67108;SDS011;54027;50.786;7.058;2024-03-22T03:07:24;18.55;;;11.48;;
67108;SDS011;54027;50.786;7.058;2024-03-22T03:09:50;20.55;;;12.43;;
67108;SDS011;54027;50.786;7.058;2024-03-22T03:12:16;21.65;;;11.73;;
67108;SDS011;54027;50.786;7.058;2024-03-22T03:14:41;20.67;;;12.27;;
67108;SDS011;54027;50.786;7.058;2024-03-22T03:17:07;18.92;;;12.68;;
67108;SDS011;54027;50.786;7.058;2024-03-22T03:19:32;21.58;;;12.13;;
67108;SDS011;54027;50.786;7.058;2024-03-22T03:21:58;20.90;;;13.57;;
67108;SDS011;54027;50.786;7.058;2024-03-22T03:24:23;24.35;;;13.77;;
67108;SDS011;54027;50.786;7.058;2024-03-22T03:26:48;21.20;;;13.10;;
67108;SDS011;54027;50.786;7.058;2024-03-22T03:29:14;22.73;;;13.07;;
67108;SDS011;54027;50.786;7.058;2024-03-22T03:31:40;19.73;;;12.35;;
67108;SDS011;54027;50.786;7.058;2024-03-22T03:34:05;21.48;;;12.60;;
67108;SDS011;54027;50.786;7.058;2024-03-22T03:36:30;23.65;;;12.60;;
67108;SDS011;54027;50.786;7.058;2024-03-22T03:38:56;22.58;;;11.52;;
67108;SDS011;54027;50.786;7.058;2024-03-22T03:41:21;19.83;;;11.85;;
67108;SDS011;54027;50.786;7.058;2024-03-22T03:43:47;18.17;;;11.60;;
67108;SDS011;54027;50.786;7.058;2024-03-22T03:46:12;24.55;;;12.90;;
67108;SDS011;54027;50.786;7.058;2024-03-22T03:48:38;18.60;;;11.95;;
67108;SDS011;54027;50.786;7.058;2024-03-22T03:51:03;18.63;;;12.25;;
67108;SDS011;54027;50.786;7.058;2024-03-22T03:53:30;20.02;;;11.15;;
67108;SDS011;54027;50.786;7.058;2024-03-22T03:55:55;22.00;;;12.27;;
67108;SDS011;54027;50.786;7.058;2024-03-22T03:58:21;22.13;;;12.48;;
67108;SDS011;54027;50.786;7.058;2024-03-22T04:00:46;21.45;;;12.82;;
67108;SDS011;54027;50.786;7.058;2024-03-22T04:03:12;20.20;;;12.05;;
67108;SDS011;54027;50.786;7.058;2024-03-22T04:05:37;25.70;;;13.27;;
67108;SDS011;54027;50.786;7.058;2024-03-22T04:08:03;19.00;;;11.70;;
67108;SDS011;54027;50.786;7.058;2024-03-22T04:10:29;20.73;;;12.85;;
67108;SDS011;54027;50.786;7.058;2024-03-22T04:12:54;19.85;;;12.52;;
67108;SDS011;54027;50.786;7.058;2024-03-22T04:15:19;20.90;;;10.98;;
67108;SDS011;54027;50.786;7.058;2024-03-22T04:17:45;20.50;;;11.77;;
67108;SDS011;54027;50.786;7.058;2024-03-22T04:20:10;16.90;;;10.75;;
67108;SDS011;54027;50.786;7.058;2024-03-22T04:22:36;18.38;;;11.38;;
67108;SDS011;54027;50.786;7.058;2024-03-22T04:25:02;23.95;;;12.85;;
67108;SDS011;54027;50.786;7.058;2024-03-22T04:27:28;21.70;;;12.25;;
67108;SDS011;54027;50.786;7.058;2024-03-22T04:29:53;17.60;;;11.70;;
67108;SDS011;54027;50.786;7.058;2024-03-22T04:32:19;21.38;;;12.70;;
67108;SDS011;54027;50.786;7.058;2024-03-22T04:34:44;17.13;;;11.57;;
67108;SDS011;54027;50.786;7.058;2024-03-22T04:37:09;19.02;;;11.60;;
67108;SDS011;54027;50.786;7.058;2024-03-22T04:39:37;20.50;;;12.35;;
67108;SDS011;54027;50.786;7.058;2024-03-22T04:42:04;17.45;;;11.32;;
67108;SDS011;54027;50.786;7.058;2024-03-22T04:44:30;20.15;;;11.43;;
67108;SDS011;54027;50.786;7.058;2024-03-22T04:46:55;18.13;;;11.15;;
67108;SDS011;54027;50.786;7.058;2024-03-22T04:49:21;18.90;;;10.73;;
67108;SDS011;54027;50.786;7.058;2024-03-22T04:51:46;16.60;;;10.68;;
67108;SDS011;54027;50.786;7.058;2024-03-22T04:54:12;20.05;;;12.05;;
67108;SDS011;54027;50.786;7.058;2024-03-22T04:56:38;18.02;;;10.13;;
67108;SDS011;54027;50.786;7.058;2024-03-22T04:59:04;15.73;;;9.23;;
67108;SDS011;54027;50.786;7.058;2024-03-22T05:01:30;17.13;;;10.52;;
67108;SDS011;54027;50.786;7.058;2024-03-22T05:03:55;17.10;;;10.13;;
67108;SDS011;54027;50.786;7.058;2024-03-22T05:06:20;16.95;;;10.18;;
67108;SDS011;54027;50.786;7.058;2024-03-22T05:08:46;16.55;;;10.20;;
67108;SDS011;54027;50.786;7.058;2024-03-22T05:11:11;15.90;;;10.00;;
67108;SDS011;54027;50.786;7.058;2024-03-22T05:13:37;17.10;;;10.43;;
67108;SDS011;54027;50.786;7.058;2024-03-22T05:16:04;17.75;;;9.75;;
67108;SDS011;54027;50.786;7.058;2024-03-22T05:18:30;17.30;;;10.60;;
67108;SDS011;54027;50.786;7.058;2024-03-22T05:20:55;17.27;;;9.65;;
67108;SDS011;54027;50.786;7.058;2024-03-22T05:23:21;16.40;;;9.60;;
67108;SDS011;54027;50.786;7.058;2024-03-22T05:25:46;15.40;;;9.23;;
67108;SDS011;54027;50.786;7.058;2024-03-22T05:28:11;17.02;;;9.75;;
67108;SDS011;54027;50.786;7.058;2024-03-22T05:30:37;17.30;;;9.35;;
67108;SDS011;54027;50.786;7.058;2024-03-22T05:33:02;17.73;;;9.20;;
67108;SDS011;54027;50.786;7.058;2024-03-22T05:35:28;13.65;;;8.50;;
67108;SDS011;54027;50.786;7.058;2024-03-22T05:37:53;13.43;;;8.80;;
67108;SDS011;54027;50.786;7.058;2024-03-22T05:40:18;15.32;;;8.93;;
67108;SDS011;54027;50.786;7.058;2024-03-22T05:42:44;16.30;;;9.35;;
67108;SDS011;54027;50.786;7.058;2024-03-22T05:45:09;17.10;;;9.55;;
67108;SDS011;54027;50.786;7.058;2024-03-22T05:47:35;18.20;;;9.77;;
67108;SDS011;54027;50.786;7.058;2024-03-22T05:50:02;17.00;;;9.10;;
67108;SDS011;54027;50.786;7.058;2024-03-22T05:52:28;15.18;;;9.00;;
67108;SDS011;54027;50.786;7.058;2024-03-22T05:54:54;16.92;;;9.07;;
67108;SDS011;54027;50.786;7.058;2024-03-22T05:57:20;15.38;;;8.13;;
67108;SDS011;54027;50.786;7.058;2024-03-22T05:59:45;17.23;;;8.57;;
67108;SDS011;54027;50.786;7.058;2024-03-22T06:02:11;16.63;;;9.07;;
67108;SDS011;54027;50.786;7.058;2024-03-22T06:04:42;13.90;;;8.38;;
67108;SDS011;54027;50.786;7.058;2024-03-22T06:07:08;13.93;;;8.73;;
67108;SDS011;54027;50.786;7.058;2024-03-22T06:09:33;15.30;;;8.77;;
67108;SDS011;54027;50.786;7.058;2024-03-22T06:12:14;13.60;;;9.10;;
67108;SDS011;54027;50.786;7.058;2024-03-22T06:14:40;13.73;;;8.05;;
67108;SDS011;54027;50.786;7.058;2024-03-22T06:17:09;14.25;;;8.15;;
67108;SDS011;54027;50.786;7.058;2024-03-22T06:19:35;14.02;;;7.95;;
67108;SDS011;54027;50.786;7.058;2024-03-22T06:22:01;12.82;;;8.65;;
67108;SDS011;54027;50.786;7.058;2024-03-22T06:24:27;12.27;;;7.25;;
67108;SDS011;54027;50.786;7.058;2024-03-22T06:26:53;19.30;;;9.00;;
67108;SDS011;54027;50.786;7.058;2024-03-22T06:29:18;15.10;;;8.32;;
67108;SDS011;54027;50.786;7.058;2024-03-22T06:31:44;15.57;;;9.00;;
67108;SDS011;54027;50.786;7.058;2024-03-22T06:34:09;14.00;;;8.63;;
67108;SDS011;54027;50.786;7.058;2024-03-22T06:36:35;16.45;;;9.05;;
67108;SDS011;54027;50.786;7.058;2024-03-22T06:39:00;13.75;;;8.82;;
67108;SDS011;54027;50.786;7.058;2024-03-22T06:41:28;14.52;;;8.68;;
67108;SDS011;54027;50.786;7.058;2024-03-22T06:43:53;14.48;;;8.30;;
67108;SDS011;54027;50.786;7.058;2024-03-22T06:46:19;16.55;;;8.65;;
67108;SDS011;54027;50.786;7.058;2024-03-22T06:48:45;15.35;;;8.80;;
67108;SDS011;54027;50.786;7.058;2024-03-22T06:51:10;12.52;;;8.25;;
67108;SDS011;54027;50.786;7.058;2024-03-22T06:53:36;18.92;;;9.35;;
67108;SDS011;54027;50.786;7.058;2024-03-22T06:56:01;13.73;;;9.30;;
67108;SDS011;54027;50.786;7.058;2024-03-22T06:58:27;19.73;;;9.43;;
67108;SDS011;54027;50.786;7.058;2024-03-22T07:00:53;14.50;;;8.27;;
67108;SDS011;54027;50.786;7.058;2024-03-22T07:03:19;18.20;;;10.73;;
67108;SDS011;54027;50.786;7.058;2024-03-22T07:05:44;16.20;;;9.75;;
67108;SDS011;54027;50.786;7.058;2024-03-22T07:08:12;16.73;;;10.05;;
67108;SDS011;54027;50.786;7.058;2024-03-22T07:10:40;13.90;;;8.18;;
67108;SDS011;54027;50.786;7.058;2024-03-22T07:13:06;19.48;;;10.15;;
67108;SDS011;54027;50.786;7.058;2024-03-22T07:15:31;21.15;;;9.73;;
67108;SDS011;54027;50.786;7.058;2024-03-22T07:17:57;18.20;;;10.10;;
67108;SDS011;54027;50.786;7.058;2024-03-22T07:20:23;16.45;;;10.35;;
67108;SDS011;54027;50.786;7.058;2024-03-22T07:22:48;16.30;;;9.75;;
67108;SDS011;54027;50.786;7.058;2024-03-22T07:25:14;13.82;;;9.10;;
67108;SDS011;54027;50.786;7.058;2024-03-22T07:27:39;17.25;;;10.18;;
67108;SDS011;54027;50.786;7.058;2024-03-22T07:30:05;18.17;;;10.48;;
67108;SDS011;54027;50.786;7.058;2024-03-22T07:32:30;16.35;;;9.80;;
67108;SDS011;54027;50.786;7.058;2024-03-22T07:34:56;17.25;;;9.52;;
67108;SDS011;54027;50.786;7.058;2024-03-22T07:37:22;18.40;;;10.23;;
67108;SDS011;54027;50.786;7.058;2024-03-22T07:39:48;15.48;;;8.93;;
67108;SDS011;54027;50.786;7.058;2024-03-22T07:42:14;15.18;;;8.70;;
67108;SDS011;54027;50.786;7.058;2024-03-22T07:44:39;16.50;;;9.35;;
67108;SDS011;54027;50.786;7.058;2024-03-22T07:47:05;12.25;;;8.40;;
67108;SDS011;54027;50.786;7.058;2024-03-22T07:49:30;11.20;;;7.93;;
67108;SDS011;54027;50.786;7.058;2024-03-22T07:51:56;15.45;;;8.52;;
67108;SDS011;54027;50.786;7.058;2024-03-22T07:54:22;13.13;;;7.53;;
67108;SDS011;54027;50.786;7.058;2024-03-22T07:56:47;12.10;;;8.10;;
67108;SDS011;54027;50.786;7.058;2024-03-22T07:59:12;14.85;;;8.27;;
67108;SDS011;54027;50.786;7.058;2024-03-22T08:01:38;15.68;;;8.70;;
67108;SDS011;54027;50.786;7.058;2024-03-22T08:04:03;15.07;;;8.20;;
67108;SDS011;54027;50.786;7.058;2024-03-22T08:06:29;17.10;;;8.90;;
67108;SDS011;54027;50.786;7.058;2024-03-22T08:08:54;13.32;;;8.35;;
67108;SDS011;54027;50.786;7.058;2024-03-22T08:11:20;12.43;;;8.05;;
67108;SDS011;54027;50.786;7.058;2024-03-22T08:13:45;12.13;;;8.48;;
67108;SDS011;54027;50.786;7.058;2024-03-22T08:16:11;15.52;;;8.70;;
67108;SDS011;54027;50.786;7.058;2024-03-22T08:18:37;16.67;;;9.13;;
67108;SDS011;54027;50.786;7.058;2024-03-22T08:21:02;12.00;;;7.35;;
67108;SDS011;54027;50.786;7.058;2024-03-22T08:23:28;13.05;;;8.25;;
67108;SDS011;54027;50.786;7.058;2024-03-22T08:25:53;18.95;;;10.43;;
67108;SDS011;54027;50.786;7.058;2024-03-22T08:28:18;15.13;;;10.68;;
67108;SDS011;54027;50.786;7.058;2024-03-22T08:30:44;18.67;;;11.55;;
67108;SDS011;54027;50.786;7.058;2024-03-22T08:33:10;15.45;;;10.68;;
67108;SDS011;54027;50.786;7.058;2024-03-22T08:35:36;15.55;;;11.45;;
67108;SDS011;54027;50.786;7.058;2024-03-22T08:38:02;20.25;;;12.00;;
67108;SDS011;54027;50.786;7.058;2024-03-22T08:40:28;19.83;;;12.20;;
67108;SDS011;54027;50.786;7.058;2024-03-22T08:42:53;17.45;;;11.30;;
67108;SDS011;54027;50.786;7.058;2024-03-22T08:45:18;18.80;;;12.60;;
67108;SDS011;54027;50.786;7.058;2024-03-22T08:47:44;18.73;;;12.45;;
67108;SDS011;54027;50.786;7.058;2024-03-22T08:50:12;18.70;;;13.07;;
67108;SDS011;54027;50.786;7.058;2024-03-22T08:52:37;20.15;;;13.73;;
67108;SDS011;54027;50.786;7.058;2024-03-22T08:55:03;20.00;;;13.80;;
67108;SDS011;54027;50.786;7.058;2024-03-22T08:57:30;25.65;;;14.60;;
67108;SDS011;54027;50.786;7.058;2024-03-22T08:59:56;22.55;;;14.63;;
67108;SDS011;54027;50.786;7.058;2024-03-22T09:02:21;23.23;;;14.73;;
67108;SDS011;54027;50.786;7.058;2024-03-22T09:04:47;21.95;;;13.48;;
67108;SDS011;54027;50.786;7.058;2024-03-22T09:07:12;21.20;;;14.02;;
67108;SDS011;54027;50.786;7.058;2024-03-22T09:09:37;22.33;;;15.43;;
67108;SDS011;54027;50.786;7.058;2024-03-22T09:12:03;20.10;;;13.75;;
67108;SDS011;54027;50.786;7.058;2024-03-22T09:14:28;22.60;;;14.73;;
67108;SDS011;54027;50.786;7.058;2024-03-22T09:16:54;21.92;;;13.95;;
67108;SDS011;54027;50.786;7.058;2024-03-22T09:19:19;21.85;;;14.38;;
67108;SDS011;54027;50.786;7.058;2024-03-22T09:21:44;28.67;;;14.80;;
67108;SDS011;54027;50.786;7.058;2024-03-22T09:24:10;21.80;;;14.18;;
67108;SDS011;54027;50.786;7.058;2024-03-22T09:26:35;22.77;;;15.18;;
67108;SDS011;54027;50.786;7.058;2024-03-22T09:29:00;21.05;;;13.88;;
67108;SDS011;54027;50.786;7.058;2024-03-22T09:31:26;20.65;;;14.07;;
67108;SDS011;54027;50.786;7.058;2024-03-22T09:33:52;21.92;;;15.40;;
67108;SDS011;54027;50.786;7.058;2024-03-22T09:36:17;21.38;;;13.70;;
67108;SDS011;54027;50.786;7.058;2024-03-22T09:38:43;24.45;;;14.63;;
67108;SDS011;54027;50.786;7.058;2024-03-22T09:41:08;18.48;;;12.15;;
67108;SDS011;54027;50.786;7.058;2024-03-22T09:43:33;22.63;;;14.65;;
67108;SDS011;54027;50.786;7.058;2024-03-22T09:46:00;22.38;;;14.48;;
67108;SDS011;54027;50.786;7.058;2024-03-22T09:48:25;22.23;;;13.77;;
67108;SDS011;54027;50.786;7.058;2024-03-22T09:50:52;22.92;;;14.57;;
67108;SDS011;54027;50.786;7.058;2024-03-22T09:53:18;19.13;;;13.48;;
67108;SDS011;54027;50.786;7.058;2024-03-22T09:55:46;17.80;;;12.30;;
67108;SDS011;54027;50.786;7.058;2024-03-22T09:58:12;19.88;;;12.30;;
67108;SDS011;54027;50.786;7.058;2024-03-22T10:00:37;19.95;;;12.85;;
67108;SDS011;54027;50.786;7.058;2024-03-22T10:03:03;20.73;;;13.07;;
67108;SDS011;54027;50.786;7.058;2024-03-22T10:05:30;19.17;;;13.45;;
67108;SDS011;54027;50.786;7.058;2024-03-22T10:07:56;19.33;;;13.05;;
67108;SDS011;54027;50.786;7.058;2024-03-22T10:10:21;18.58;;;11.25;;
67108;SDS011;54027;50.786;7.058;2024-03-22T10:12:47;18.52;;;11.20;;
67108;SDS011;54027;50.786;7.058;2024-03-22T10:15:12;18.00;;;11.40;;
67108;SDS011;54027;50.786;7.058;2024-03-22T10:17:38;18.20;;;10.25;;
67108;SDS011;54027;50.786;7.058;2024-03-22T10:20:05;17.30;;;10.30;;
67108;SDS011;54027;50.786;7.058;2024-03-22T10:25:24;16.52;;;10.15;;
67108;SDS011;54027;50.786;7.058;2024-03-22T10:27:50;16.80;;;9.93;;
67108;SDS011;54027;50.786;7.058;2024-03-22T10:30:16;15.13;;;9.23;;
67108;SDS011;54027;50.786;7.058;2024-03-22T10:32:42;16.10;;;9.27;;
67108;SDS011;54027;50.786;7.058;2024-03-22T10:35:11;15.82;;;9.48;;
67108;SDS011;54027;50.786;7.058;2024-03-22T10:37:38;16.17;;;9.80;;
67108;SDS011;54027;50.786;7.058;2024-03-22T10:40:04;18.30;;;9.23;;
67108;SDS011;54027;50.786;7.058;2024-03-22T10:42:36;10.93;;;7.80;;
67108;SDS011;54027;50.786;7.058;2024-03-22T10:45:03;12.50;;;7.68;;
67108;SDS011;54027;50.786;7.058;2024-03-22T10:47:30;11.77;;;6.90;;
67108;SDS011;54027;50.786;7.058;2024-03-22T10:50:06;10.63;;;7.55;;
67108;SDS011;54027;50.786;7.058;2024-03-22T10:52:36;7.93;;;5.25;;
67108;SDS011;54027;50.786;7.058;2024-03-22T10:55:03;7.13;;;4.03;;
67108;SDS011;54027;50.786;7.058;2024-03-22T10:57:32;6.47;;;3.53;;
67108;SDS011;54027;50.786;7.058;2024-03-22T11:00:02;3.92;;;2.25;;
67108;SDS011;54027;50.786;7.058;2024-03-22T11:02:34;4.22;;;1.90;;
67108;SDS011;54027;50.786;7.058;2024-03-22T11:05:00;2.90;;;1.90;;
67108;SDS011;54027;50.786;7.058;2024-03-22T11:07:29;5.25;;;2.83;;
67108;SDS011;54027;50.786;7.058;2024-03-22T11:09:58;8.05;;;4.57;;
67108;SDS011;54027;50.786;7.058;2024-03-22T11:12:28;4.30;;;3.20;;
67108;SDS011;54027;50.786;7.058;2024-03-22T11:14:58;4.28;;;3.15;;
67108;SDS011;54027;50.786;7.058;2024-03-22T11:17:23;9.98;;;4.65;;
67108;SDS011;54027;50.786;7.058;2024-03-22T11:19:50;9.73;;;5.68;;
67108;SDS011;54027;50.786;7.058;2024-03-22T11:22:17;5.95;;;2.90;;
67108;SDS011;54027;50.786;7.058;2024-03-22T11:24:42;5.38;;;3.83;;
67108;SDS011;54027;50.786;7.058;2024-03-22T11:27:08;7.32;;;5.68;;
67108;SDS011;54027;50.786;7.058;2024-03-22T11:29:35;11.60;;;6.15;;
67108;SDS011;54027;50.786;7.058;2024-03-22T11:32:03;8.57;;;5.65;;
67108;SDS011;54027;50.786;7.058;2024-03-22T11:34:29;9.40;;;5.47;;
67108;SDS011;54027;50.786;7.058;2024-03-22T11:36:55;11.20;;;6.18;;
67108;SDS011;54027;50.786;7.058;2024-03-22T11:39:21;7.90;;;4.75;;
67108;SDS011;54027;50.786;7.058;2024-03-22T11:41:46;10.10;;;5.00;;
67108;SDS011;54027;50.786;7.058;2024-03-22T11:44:14;8.18;;;4.13;;
67108;SDS011;54027;50.786;7.058;2024-03-22T11:46:41;8.77;;;4.60;;
67108;SDS011;54027;50.786;7.058;2024-03-22T11:49:07;10.77;;;6.05;;
67108;SDS011;54027;50.786;7.058;2024-03-22T11:51:32;8.63;;;4.75;;
67108;SDS011;54027;50.786;7.058;2024-03-22T11:53:57;7.28;;;4.57;;
67108;SDS011;54027;50.786;7.058;2024-03-22T11:56:24;5.22;;;4.25;;
67108;SDS011;54027;50.786;7.058;2024-03-22T11:58:57;6.70;;;4.30;;
67108;SDS011;54027;50.786;7.058;2024-03-22T12:01:23;5.10;;;3.70;;
67108;SDS011;54027;50.786;7.058;2024-03-22T12:03:48;7.97;;;4.30;;
67108;SDS011;54027;50.786;7.058;2024-03-22T12:06:15;7.10;;;3.85;;
67108;SDS011;54027;50.786;7.058;2024-03-22T12:08:40;9.20;;;3.83;;
67108;SDS011;54027;50.786;7.058;2024-03-22T12:11:07;5.53;;;3.85;;
67108;SDS011;54027;50.786;7.058;2024-03-22T12:13:33;6.50;;;3.03;;
67108;SDS011;54027;50.786;7.058;2024-03-22T12:15:58;9.80;;;3.70;;
67108;SDS011;54027;50.786;7.058;2024-03-22T12:18:24;6.93;;;3.22;;
67108;SDS011;54027;50.786;7.058;2024-03-22T12:20:49;4.65;;;2.35;;
67108;SDS011;54027;50.786;7.058;2024-03-22T12:23:14;6.00;;;2.58;;
67108;SDS011;54027;50.786;7.058;2024-03-22T12:25:40;5.35;;;2.60;;
67108;SDS011;54027;50.786;7.058;2024-03-22T12:28:05;4.30;;;2.10;;
67108;SDS011;54027;50.786;7.058;2024-03-22T12:30:31;5.00;;;2.00;;
67108;SDS011;54027;50.786;7.058;2024-03-22T12:32:57;3.25;;;2.15;;
67108;SDS011;54027;50.786;7.058;2024-03-22T12:35:23;6.00;;;2.75;;
67108;SDS011;54027;50.786;7.058;2024-03-22T12:37:48;4.95;;;2.53;;
67108;SDS011;54027;50.786;7.058;2024-03-22T12:40:14;4.80;;;2.45;;
67108;SDS011;54027;50.786;7.058;2024-03-22T12:42:39;3.60;;;2.22;;
67108;SDS011;54027;50.786;7.058;2024-03-22T12:45:05;3.67;;;2.28;;
67108;SDS011;54027;50.786;7.058;2024-03-22T12:47:32;3.95;;;2.08;;
67108;SDS011;54027;50.786;7.058;2024-03-22T12:49:58;4.70;;;2.17;;
67108;SDS011;54027;50.786;7.058;2024-03-22T12:52:23;4.50;;;2.50;;
67108;SDS011;54027;50.786;7.058;2024-03-22T12:54:48;4.03;;;2.40;;
67108;SDS011;54027;50.786;7.058;2024-03-22T12:57:14;3.65;;;2.30;;
67108;SDS011;54027;50.786;7.058;2024-03-22T12:59:39;5.68;;;2.40;;
67108;SDS011;54027;50.786;7.058;2024-03-22T13:02:05;7.43;;;2.60;;
67108;SDS011;54027;50.786;7.058;2024-03-22T13:04:30;7.15;;;2.95;;
67108;SDS011;54027;50.786;7.058;2024-03-22T13:06:56;4.25;;;2.95;;
67108;SDS011;54027;50.786;7.058;2024-03-22T13:09:21;4.60;;;2.78;;
67108;SDS011;54027;50.786;7.058;2024-03-22T13:11:47;4.60;;;3.05;;
67108;SDS011;54027;50.786;7.058;2024-03-22T13:14:13;4.90;;;2.40;;
67108;SDS011;54027;50.786;7.058;2024-03-22T13:16:40;4.40;;;2.30;;
67108;SDS011;54027;50.786;7.058;2024-03-22T13:19:05;5.53;;;2.47;;
67108;SDS011;54027;50.786;7.058;2024-03-22T13:21:33;4.95;;;2.65;;
67108;SDS011;54027;50.786;7.058;2024-03-22T13:23:59;4.90;;;3.42;;
67108;SDS011;54027;50.786;7.058;2024-03-22T13:26:24;6.85;;;2.72;;
67108;SDS011;54027;50.786;7.058;2024-03-22T13:28:50;5.40;;;2.78;;
67108;SDS011;54027;50.786;7.058;2024-03-22T13:31:16;3.72;;;2.08;;
67108;SDS011;54027;50.786;7.058;2024-03-22T13:33:42;10.32;;;5.78;;
67108;SDS011;54027;50.786;7.058;2024-03-22T13:36:07;8.75;;;5.32;;
67108;SDS011;54027;50.786;7.058;2024-03-22T13:38:33;9.63;;;4.88;;
67108;SDS011;54027;50.786;7.058;2024-03-22T13:40:58;7.05;;;4.95;;
67108;SDS011;54027;50.786;7.058;2024-03-22T13:43:25;10.18;;;5.60;;
67108;SDS011;54027;50.786;7.058;2024-03-22T13:45:52;11.05;;;5.90;;
67108;SDS011;54027;50.786;7.058;2024-03-22T13:48:21;9.52;;;5.78;;
67108;SDS011;54027;50.786;7.058;2024-03-22T13:50:51;9.75;;;4.93;;
67108;SDS011;54027;50.786;7.058;2024-03-22T13:53:18;8.70;;;5.93;;
67108;SDS011;54027;50.786;7.058;2024-03-22T13:55:43;11.13;;;5.95;;
67108;SDS011;54027;50.786;7.058;2024-03-22T13:58:09;9.63;;;5.93;;
67108;SDS011;54027;50.786;7.058;2024-03-22T14:00:34;9.20;;;5.50;;
67108;SDS011;54027;50.786;7.058;2024-03-22T14:03:01;8.35;;;5.53;;
67108;SDS011;54027;50.786;7.058;2024-03-22T14:05:26;8.27;;;5.03;;
67108;SDS011;54027;50.786;7.058;2024-03-22T14:07:51;6.13;;;4.85;;
67108;SDS011;54027;50.786;7.058;2024-03-22T14:10:17;10.35;;;5.28;;
67108;SDS011;54027;50.786;7.058;2024-03-22T14:12:43;9.38;;;5.30;;
67108;SDS011;54027;50.786;7.058;2024-03-22T14:15:10;8.13;;;5.00;;
67108;SDS011;54027;50.786;7.058;2024-03-22T14:17:36;7.55;;;4.72;;
67108;SDS011;54027;50.786;7.058;2024-03-22T14:20:01;11.27;;;5.95;;
67108;SDS011;54027;50.786;7.058;2024-03-22T14:22:28;8.48;;;5.60;;
67108;SDS011;54027;50.786;7.058;2024-03-22T14:24:53;8.55;;;5.47;;